sensor_id;sensor_type;location;lat;lon;timestamp;pressure;altitude;pressure_sealevel;temperature;humidity
68654;BME280;55636;51.108;13.622;2023-02-23T00:00:41;100070.56;;;6.26;63.86
68654;BME280;55636;51.108;13.622;2023-02-23T00:01:45;100075.44;;;6.23;63.80
68654;BME280;55636;51.108;13.622;2023-02-23T00:02:49;100074.63;;;6.23;63.87
68654;BME280;55636;51.108;13.622;2023-02-23T00:03:54;100063.41;;;6.24;63.88
68654;BME280;55636;51.108;13.622;2023-02-23T00:04:57;100068.19;;;6.17;64.04
68654;BME280;55636;51.108;13.622;2023-02-23T00:06:01;100066.53;;;6.16;64.23
68654;BME280;55636;51.108;13.622;2023-02-23T00:07:04;100062.72;;;6.17;64.15
68654;BME280;55636;51.108;13.622;2023-02-23T00:08:11;100068.19;;;6.17;64.03
68654;BME280;55636;51.108;13.622;2023-02-23T00:09:13;100059.34;;;6.15;64.18
68654;BME280;55636;51.108;13.622;2023-02-23T00:10:36;100064.25;;;6.13;64.25
68654;BME280;55636;51.108;13.622;2023-02-23T00:11:40;100065.78;;;6.09;64.66
68654;BME280;55636;51.108;13.622;2023-02-23T00:12:42;100067.47;;;6.10;64.65
68654;BME280;55636;51.108;13.622;2023-02-23T00:13:47;100063.91;;;6.10;64.57
68654;BME280;55636;51.108;13.622;2023-02-23T00:14:51;100072.34;;;6.08;64.64
68654;BME280;55636;51.108;13.622;2023-02-23T00:15:54;100065.44;;;6.05;64.71
68654;BME280;55636;51.108;13.622;2023-02-23T00:16:57;100067.59;;;6.03;64.92
68654;BME280;55636;51.108;13.622;2023-02-23T00:18:01;100062.69;;;6.05;64.72
68654;BME280;55636;51.108;13.622;2023-02-23T00:19:05;100055.31;;;6.06;64.65
68654;BME280;55636;51.108;13.622;2023-02-23T00:20:10;100049.81;;;6.06;64.59
68654;BME280;55636;51.108;13.622;2023-02-23T00:21:15;100056.75;;;6.09;64.38
68654;BME280;55636;51.108;13.622;2023-02-23T00:22:18;100057.19;;;6.05;64.55
68654;BME280;55636;51.108;13.622;2023-02-23T00:23:29;100058.88;;;6.06;64.38
68654;BME280;55636;51.108;13.622;2023-02-23T00:24:32;100060.78;;;6.06;64.39
68654;BME280;55636;51.108;13.622;2023-02-23T00:25:36;100057.44;;;6.04;64.51
68654;BME280;55636;51.108;13.622;2023-02-23T00:26:40;100057.19;;;6.05;64.52
68654;BME280;55636;51.108;13.622;2023-02-23T00:27:46;100060.44;;;6.02;64.56
68654;BME280;55636;51.108;13.622;2023-02-23T00:28:52;100054.69;;;6.04;64.56
68654;BME280;55636;51.108;13.622;2023-02-23T00:29:55;100056.38;;;6.05;64.43
68654;BME280;55636;51.108;13.622;2023-02-23T00:31:00;100059.34;;;6.03;64.53
68654;BME280;55636;51.108;13.622;2023-02-23T00:32:03;100057.69;;;6.02;64.68
68654;BME280;55636;51.108;13.622;2023-02-23T00:33:05;100065.91;;;6.02;64.60
68654;BME280;55636;51.108;13.622;2023-02-23T00:34:09;100054.94;;;6.02;64.46
68654;BME280;55636;51.108;13.622;2023-02-23T00:35:12;100054.94;;;6.02;64.44
68654;BME280;55636;51.108;13.622;2023-02-23T00:36:24;100057.69;;;6.02;64.20
68654;BME280;55636;51.108;13.622;2023-02-23T00:37:27;100059.00;;;6.00;64.44
68654;BME280;55636;51.108;13.622;2023-02-23T00:38:29;100051.84;;;5.99;64.53
68654;BME280;55636;51.108;13.622;2023-02-23T00:39:38;100060.31;;;5.97;64.67
68654;BME280;55636;51.108;13.622;2023-02-23T00:40:40;100055.88;;;5.96;64.71
68654;BME280;55636;51.108;13.622;2023-02-23T00:41:44;100057.31;;;5.99;64.65
68654;BME280;55636;51.108;13.622;2023-02-23T00:42:47;100052.56;;;5.94;64.94
68654;BME280;55636;51.108;13.622;2023-02-23T00:43:58;100055.06;;;5.96;64.80
68654;BME280;55636;51.108;13.622;2023-02-23T00:45:01;100047.09;;;5.94;64.68
68654;BME280;55636;51.108;13.622;2023-02-23T00:46:09;100055.06;;;5.96;64.71
68654;BME280;55636;51.108;13.622;2023-02-23T00:47:12;100052.81;;;5.93;64.85
68654;BME280;55636;51.108;13.622;2023-02-23T00:48:14;100058.28;;;5.93;64.82
68654;BME280;55636;51.108;13.622;2023-02-23T00:49:19;100056.13;;;5.95;64.75
68654;BME280;55636;51.108;13.622;2023-02-23T00:50:22;100056.25;;;5.88;65.11
68654;BME280;55636;51.108;13.622;2023-02-23T00:51:26;100056.00;;;5.89;65.11
68654;BME280;55636;51.108;13.622;2023-02-23T00:52:33;100064.22;;;5.89;64.97
68654;BME280;55636;51.108;13.622;2023-02-23T00:53:37;100065.66;;;5.92;64.81
68654;BME280;55636;51.108;13.622;2023-02-23T00:54:39;100056.63;;;5.92;64.94
68654;BME280;55636;51.108;13.622;2023-02-23T00:55:42;100059.34;;;5.92;64.95
68654;BME280;55636;51.108;13.622;2023-02-23T00:56:45;100059.94;;;5.94;64.92
68654;BME280;55636;51.108;13.622;2023-02-23T00:57:48;100062.91;;;5.92;64.95
68654;BME280;55636;51.108;13.622;2023-02-23T00:58:54;100066.50;;;5.93;64.90
68654;BME280;55636;51.108;13.622;2023-02-23T01:00:00;100065.66;;;5.92;65.05
68654;BME280;55636;51.108;13.622;2023-02-23T01:01:14;100057.69;;;5.90;64.95
68654;BME280;55636;51.108;13.622;2023-02-23T01:02:17;100062.34;;;5.90;64.92
68654;BME280;55636;51.108;13.622;2023-02-23T01:03:21;100058.75;;;5.89;64.98
68654;BME280;55636;51.108;13.622;2023-02-23T01:04:23;100062.91;;;5.92;64.96
68654;BME280;55636;51.108;13.622;2023-02-23T01:05:25;100058.75;;;5.89;65.13
68654;BME280;55636;51.108;13.622;2023-02-23T01:06:28;100057.69;;;5.90;65.06
68654;BME280;55636;51.108;13.622;2023-02-23T01:07:31;100052.19;;;5.90;64.97
68654;BME280;55636;51.108;13.622;2023-02-23T01:08:36;100056.63;;;5.92;64.96
68654;BME280;55636;51.108;13.622;2023-02-23T01:09:38;100054.69;;;5.92;64.70
68654;BME280;55636;51.108;13.622;2023-02-23T01:10:42;100051.94;;;5.92;64.92
68654;BME280;55636;51.108;13.622;2023-02-23T01:11:46;100051.13;;;5.92;64.93
68654;BME280;55636;51.108;13.622;2023-02-23T01:12:50;100051.94;;;5.92;64.87
68654;BME280;55636;51.108;13.622;2023-02-23T01:13:56;100053.88;;;5.92;65.03
68654;BME280;55636;51.108;13.622;2023-02-23T01:14:59;100051.13;;;5.92;65.02
68654;BME280;55636;51.108;13.622;2023-02-23T01:16:07;100050.06;;;5.93;64.99
68654;BME280;55636;51.108;13.622;2023-02-23T01:17:13;100050.06;;;5.93;64.89
68654;BME280;55636;51.108;13.622;2023-02-23T01:18:19;100046.22;;;5.94;64.92
68654;BME280;55636;51.108;13.622;2023-02-23T01:19:22;100052.81;;;5.93;64.86
68654;BME280;55636;51.108;13.622;2023-02-23T01:20:24;100046.97;;;5.89;64.98
68654;BME280;55636;51.108;13.622;2023-02-23T01:21:33;100046.47;;;5.92;65.07
68654;BME280;55636;51.108;13.622;2023-02-23T01:22:35;100046.72;;;5.90;64.97
68654;BME280;55636;51.108;13.622;2023-02-23T01:23:39;100049.47;;;5.90;64.97
68654;BME280;55636;51.108;13.622;2023-02-23T01:24:41;100050.28;;;5.91;65.01
68654;BME280;55636;51.108;13.622;2023-02-23T01:25:44;100047.31;;;5.93;64.97
68654;BME280;55636;51.108;13.622;2023-02-23T01:26:46;100045.88;;;5.90;65.01
68654;BME280;55636;51.108;13.622;2023-02-23T01:27:48;100044.22;;;5.89;65.16
68654;BME280;55636;51.108;13.622;2023-02-23T01:28:59;100046.97;;;5.89;65.17
68654;BME280;55636;51.108;13.622;2023-02-23T01:30:02;100045.03;;;5.89;65.19
68654;BME280;55636;51.108;13.622;2023-02-23T01:31:07;100049.09;;;5.87;65.20
68654;BME280;55636;51.108;13.622;2023-02-23T01:32:10;100044.66;;;5.86;65.21
68654;BME280;55636;51.108;13.622;2023-02-23T01:33:15;100037.06;;;5.88;65.20
68654;BME280;55636;51.108;13.622;2023-02-23T01:34:19;100043.22;;;5.83;65.41
68654;BME280;55636;51.108;13.622;2023-02-23T01:35:24;100044.66;;;5.86;65.28
68654;BME280;55636;51.108;13.622;2023-02-23T01:36:28;100040.03;;;5.86;65.19
68654;BME280;55636;51.108;13.622;2023-02-23T01:37:35;100041.72;;;5.87;65.12
68654;BME280;55636;51.108;13.622;2023-02-23T01:38:39;100034.56;;;5.86;65.19
68654;BME280;55636;51.108;13.622;2023-02-23T01:39:42;100033.69;;;5.86;65.24
68654;BME280;55636;51.108;13.622;2023-02-23T01:40:44;100032.88;;;5.85;65.29
68654;BME280;55636;51.108;13.622;2023-02-23T01:41:49;100037.53;;;5.85;65.28
68654;BME280;55636;51.108;13.622;2023-02-23T01:45:31;100028.22;;;5.86;65.23
68654;BME280;55636;51.108;13.622;2023-02-23T01:46:38;100039.78;;;5.88;65.05
68654;BME280;55636;51.108;13.622;2023-02-23T01:47:41;100033.69;;;5.86;65.06
68654;BME280;55636;51.108;13.622;2023-02-23T01:48:43;100020.59;;;5.88;64.94
68654;BME280;55636;51.108;13.622;2023-02-23T01:49:46;100033.94;;;5.84;65.13
68654;BME280;55636;51.108;13.622;2023-02-23T01:50:56;100032.06;;;5.85;65.26
68654;BME280;55636;51.108;13.622;2023-02-23T01:52:06;100022.72;;;5.86;65.28
68654;BME280;55636;51.108;13.622;2023-02-23T01:53:12;100029.53;;;5.83;65.26
68654;BME280;55636;51.108;13.622;2023-02-23T01:54:17;100026.56;;;5.85;65.21
68654;BME280;55636;51.108;13.622;2023-02-23T01:55:24;100032.63;;;5.87;65.02
68654;BME280;55636;51.108;13.622;2023-02-23T01:56:32;100031.81;;;5.86;65.11
68654;BME280;55636;51.108;13.622;2023-02-23T01:57:35;100027.41;;;5.85;65.15
68654;BME280;55636;51.108;13.622;2023-02-23T01:58:40;100031.81;;;5.86;65.20
68654;BME280;55636;51.108;13.622;2023-02-23T01:59:47;100027.41;;;5.85;65.12
68654;BME280;55636;51.108;13.622;2023-02-23T02:00:55;100025.25;;;5.87;65.01
68654;BME280;55636;51.108;13.622;2023-02-23T02:01:58;100024.16;;;5.88;64.95
68654;BME280;55636;51.108;13.622;2023-02-23T02:03:01;100021.44;;;5.88;65.00
68654;BME280;55636;51.108;13.622;2023-02-23T02:04:10;100017.63;;;5.89;64.97
68654;BME280;55636;51.108;13.622;2023-02-23T02:05:18;100022.03;;;5.90;65.03
68654;BME280;55636;51.108;13.622;2023-02-23T02:06:25;100012.75;;;5.92;65.04
68654;BME280;55636;51.108;13.622;2023-02-23T02:07:30;100017.97;;;5.93;64.97
68654;BME280;55636;51.108;13.622;2023-02-23T02:08:37;100024.28;;;5.94;64.85
68654;BME280;55636;51.108;13.622;2023-02-23T02:09:46;100020.47;;;5.95;64.74
68654;BME280;55636;51.108;13.622;2023-02-23T02:11:07;100016.91;;;5.94;64.74
68654;BME280;55636;51.108;13.622;2023-02-23T02:12:29;100013.13;;;5.95;64.78
68654;BME280;55636;51.108;13.622;2023-02-23T02:13:32;100009.75;;;5.93;64.79
68654;BME280;55636;51.108;13.622;2023-02-23T02:14:35;100015.00;;;5.95;64.76
68654;BME280;55636;51.108;13.622;2023-02-23T02:15:47;100001.28;;;5.95;64.78
68654;BME280;55636;51.108;13.622;2023-02-23T02:17:21;100007.63;;;5.95;64.71
68654;BME280;55636;51.108;13.622;2023-02-23T02:24:34;99992.81;;;5.96;64.72
68654;BME280;55636;51.108;13.622;2023-02-23T02:25:44;99997.25;;;5.97;64.63
68654;BME280;55636;51.108;13.622;2023-02-23T02:27:01;99999.16;;;5.97;64.78
68654;BME280;55636;51.108;13.622;2023-02-23T02:28:36;99997.47;;;5.96;64.75
68654;BME280;55636;51.108;13.622;2023-02-23T02:30:08;99993.91;;;5.95;64.85
68654;BME280;55636;51.108;13.622;2023-02-23T02:31:42;99999.97;;;5.97;64.66
68654;BME280;55636;51.108;13.622;2023-02-23T02:35:51;99994.50;;;5.97;64.63
68654;BME280;55636;51.108;13.622;2023-02-23T02:37:34;99996.41;;;5.97;64.82
68654;BME280;55636;51.108;13.622;2023-02-23T02:40:02;99995.00;;;5.94;64.96
68654;BME280;55636;51.108;13.622;2023-02-23T02:41:27;99985.91;;;5.94;64.80
68654;BME280;55636;51.108;13.622;2023-02-23T02:42:46;99996.41;;;5.97;64.80
68654;BME280;55636;51.108;13.622;2023-02-23T02:43:59;99992.81;;;5.96;64.63
68654;BME280;55636;51.108;13.622;2023-02-23T02:45:21;99998.09;;;5.98;64.55
68654;BME280;55636;51.108;13.622;2023-02-23T02:46:33;99999.72;;;5.99;64.46
68654;BME280;55636;51.108;13.622;2023-02-23T02:49:19;100000.34;;;6.01;64.34
68654;BME280;55636;51.108;13.622;2023-02-23T02:50:48;100001.78;;;6.03;64.38
68654;BME280;55636;51.108;13.622;2023-02-23T02:52:18;99996.53;;;6.02;64.29
68654;BME280;55636;51.108;13.622;2023-02-23T02:53:30;99998.44;;;6.01;64.36
68654;BME280;55636;51.108;13.622;2023-02-23T02:54:40;100000.91;;;6.03;64.42
68654;BME280;55636;51.108;13.622;2023-02-23T02:55:46;100002.84;;;6.02;64.36
68654;BME280;55636;51.108;13.622;2023-02-23T02:56:50;99997.59;;;6.01;64.58
68654;BME280;55636;51.108;13.622;2023-02-23T02:57:57;99994.88;;;6.01;64.56
68654;BME280;55636;51.108;13.622;2023-02-23T02:59:02;100004.97;;;6.00;64.68
68654;BME280;55636;51.108;13.622;2023-02-23T03:00:06;99994.00;;;6.00;64.58
68654;BME280;55636;51.108;13.622;2023-02-23T03:01:29;99993.44;;;5.98;64.61
68654;BME280;55636;51.108;13.622;2023-02-23T03:02:51;99987.34;;;5.96;64.74
68654;BME280;55636;51.108;13.622;2023-02-23T03:04:23;99982.94;;;5.95;64.64
68654;BME280;55636;51.108;13.622;2023-02-23T03:05:49;99987.59;;;5.95;64.58
68654;BME280;55636;51.108;13.622;2023-02-23T03:07:20;99980.22;;;5.95;64.67
68654;BME280;55636;51.108;13.622;2023-02-23T03:08:49;99979.97;;;5.97;64.54
68654;BME280;55636;51.108;13.622;2023-02-23T03:10:34;99976.72;;;6.00;64.50
68654;BME280;55636;51.108;13.622;2023-02-23T03:20:25;99970.06;;;5.96;64.38
68654;BME280;55636;51.108;13.622;2023-02-23T03:23:53;99978.28;;;5.96;64.40
68654;BME280;55636;51.108;13.622;2023-02-23T03:26:52;99972.19;;;5.94;64.51
68654;BME280;55636;51.108;13.622;2023-02-23T03:28:23;99975.19;;;5.92;64.46
68654;BME280;55636;51.108;13.622;2023-02-23T03:29:57;99979.00;;;5.91;64.58
68654;BME280;55636;51.108;13.622;2023-02-23T03:33:00;99983.66;;;5.90;64.54
68654;BME280;55636;51.108;13.622;2023-02-23T03:34:35;99973.28;;;5.93;64.56
68654;BME280;55636;51.108;13.622;2023-02-23T03:36:14;99974.38;;;5.92;64.61
68654;BME280;55636;51.108;13.622;2023-02-23T03:37:52;99969.94;;;5.90;64.67
68654;BME280;55636;51.108;13.622;2023-02-23T03:39:25;99971.63;;;5.92;64.60
68654;BME280;55636;51.108;13.622;2023-02-23T03:40:52;99973.50;;;5.91;64.74
68654;BME280;55636;51.108;13.622;2023-02-23T03:42:17;99975.19;;;5.92;64.63
68654;BME280;55636;51.108;13.622;2023-02-23T03:43:46;99974.13;;;5.93;64.55
68654;BME280;55636;51.108;13.622;2023-02-23T03:45:13;99974.13;;;5.93;64.63
68654;BME280;55636;51.108;13.622;2023-02-23T03:46:38;99971.38;;;5.93;64.51
68654;BME280;55636;51.108;13.622;2023-02-23T03:48:03;99980.66;;;5.92;64.63
68654;BME280;55636;51.108;13.622;2023-02-23T03:49:29;99976.84;;;5.93;64.58
68654;BME280;55636;51.108;13.622;2023-02-23T03:51:01;99984.84;;;5.95;64.61
68654;BME280;55636;51.108;13.622;2023-02-23T03:52:40;99978.28;;;5.96;64.62
68654;BME280;55636;51.108;13.622;2023-02-23T03:54:17;99981.03;;;5.96;64.56
68654;BME280;55636;51.108;13.622;2023-02-23T03:55:43;99984.59;;;5.96;64.59
68654;BME280;55636;51.108;13.622;2023-02-23T03:57:08;99986.28;;;5.97;64.57
68654;BME280;55636;51.108;13.622;2023-02-23T03:58:35;99986.03;;;5.99;64.55
68654;BME280;55636;51.108;13.622;2023-02-23T04:00:02;99984.84;;;5.95;64.62
68654;BME280;55636;51.108;13.622;2023-02-23T04:01:25;99982.72;;;5.97;64.67
68654;BME280;55636;51.108;13.622;2023-02-23T04:02:49;99989.00;;;5.97;64.63
68654;BME280;55636;51.108;13.622;2023-02-23T04:04:13;99987.13;;;5.98;64.55
68654;BME280;55636;51.108;13.622;2023-02-23T04:05:36;99995.56;;;5.96;64.72
68654;BME280;55636;51.108;13.622;2023-02-23T04:07:00;99985.22;;;5.98;64.71
68654;BME280;55636;51.108;13.622;2023-02-23T04:08:26;99990.69;;;5.98;64.65
68654;BME280;55636;51.108;13.622;2023-02-23T04:09:50;99995.94;;;6.00;64.66
68654;BME280;55636;51.108;13.622;2023-02-23T04:13:21;100000.91;;;6.03;64.64
68654;BME280;55636;51.108;13.622;2023-02-23T04:14:37;99998.78;;;6.05;64.55
68654;BME280;55636;51.108;13.622;2023-02-23T04:15:57;99994.13;;;6.05;64.52
68654;BME280;55636;51.108;13.622;2023-02-23T04:17:01;100003.78;;;6.08;64.51
68654;BME280;55636;51.108;13.622;2023-02-23T04:18:06;100011.19;;;6.07;64.48
68654;BME280;55636;51.108;13.622;2023-02-23T04:19:08;100004.63;;;6.09;64.44
68654;BME280;55636;51.108;13.622;2023-02-23T04:20:13;100008.19;;;6.09;64.40
68654;BME280;55636;51.108;13.622;2023-02-23T04:21:15;100013.44;;;6.11;64.42
68654;BME280;55636;51.108;13.622;2023-02-23T04:22:18;100005.22;;;6.11;64.46
68654;BME280;55636;51.108;13.622;2023-02-23T04:23:21;100011.56;;;6.11;64.45
68654;BME280;55636;51.108;13.622;2023-02-23T04:24:24;100012.13;;;6.13;64.36
68654;BME280;55636;51.108;13.622;2023-02-23T04:25:27;100012.97;;;6.14;64.39
68654;BME280;55636;51.108;13.622;2023-02-23T04:26:30;100015.47;;;6.15;64.34
68654;BME280;55636;51.108;13.622;2023-02-23T04:27:32;100014.41;;;6.16;64.25
68654;BME280;55636;51.108;13.622;2023-02-23T04:28:34;100005.34;;;6.16;64.30
68654;BME280;55636;51.108;13.622;2023-02-23T04:29:37;100012.50;;;6.17;64.23
68654;BME280;55636;51.108;13.622;2023-02-23T04:30:40;100013.34;;;6.17;64.22
68654;BME280;55636;51.108;13.622;2023-02-23T04:31:43;100012.25;;;6.18;64.27
68654;BME280;55636;51.108;13.622;2023-02-23T04:32:45;100010.09;;;6.20;64.21
68654;BME280;55636;51.108;13.622;2023-02-23T04:33:49;100017.53;;;6.20;64.18
68654;BME280;55636;51.108;13.622;2023-02-23T04:34:51;100011.78;;;6.21;64.10
68654;BME280;55636;51.108;13.622;2023-02-23T04:35:53;100013.69;;;6.21;64.17
68654;BME280;55636;51.108;13.622;2023-02-23T04:36:58;100012.38;;;6.23;64.06
68654;BME280;55636;51.108;13.622;2023-02-23T04:38:00;100009.63;;;6.23;64.03
68654;BME280;55636;51.108;13.622;2023-02-23T04:39:03;100004.97;;;6.24;64.05
68654;BME280;55636;51.108;13.622;2023-02-23T04:40:05;100003.88;;;6.25;64.04
68654;BME280;55636;51.108;13.622;2023-02-23T04:41:08;100011.03;;;6.26;64.05
68654;BME280;55636;51.108;13.622;2023-02-23T04:42:11;100001.75;;;6.27;63.97
68654;BME280;55636;51.108;13.622;2023-02-23T04:43:14;100008.91;;;6.28;63.84
68654;BME280;55636;51.108;13.622;2023-02-23T04:44:16;100000.44;;;6.30;63.79
68654;BME280;55636;51.108;13.622;2023-02-23T04:45:21;100005.91;;;6.30;63.89
68654;BME280;55636;51.108;13.622;2023-02-23T04:46:24;100004.25;;;6.29;63.92
68654;BME280;55636;51.108;13.622;2023-02-23T04:47:27;100010.59;;;6.29;63.88
68654;BME280;55636;51.108;13.622;2023-02-23T04:48:30;100001.25;;;6.30;63.84
68654;BME280;55636;51.108;13.622;2023-02-23T04:49:32;100003.66;;;6.27;64.08
68654;BME280;55636;51.108;13.622;2023-02-23T04:50:34;99999.81;;;6.28;63.98
68654;BME280;55636;51.108;13.622;2023-02-23T04:51:37;100002.09;;;6.31;63.85
68654;BME280;55636;51.108;13.622;2023-02-23T04:52:39;99997.69;;;6.30;63.78
68654;BME280;55636;51.108;13.622;2023-02-23T04:53:42;99995.78;;;6.30;63.81
68654;BME280;55636;51.108;13.622;2023-02-23T04:54:45;99989.47;;;6.30;63.74
68654;BME280;55636;51.108;13.622;2023-02-23T04:55:48;99990.28;;;6.30;63.59
68654;BME280;55636;51.108;13.622;2023-02-23T04:56:51;99994.94;;;6.30;63.53
68654;BME280;55636;51.108;13.622;2023-02-23T04:57:58;99994.94;;;6.30;63.52
68654;BME280;55636;51.108;13.622;2023-02-23T04:59:01;99989.47;;;6.30;63.61
68654;BME280;55636;51.108;13.622;2023-02-23T05:00:03;99988.63;;;6.29;63.65
68654;BME280;55636;51.108;13.622;2023-02-23T05:01:07;99989.47;;;6.30;63.51
68654;BME280;55636;51.108;13.622;2023-02-23T05:02:11;99992.19;;;6.30;63.46
68654;BME280;55636;51.108;13.622;2023-02-23T05:03:13;99989.72;;;6.28;63.42
68654;BME280;55636;51.108;13.622;2023-02-23T05:04:15;99988.03;;;6.27;63.44
68654;BME280;55636;51.108;13.622;2023-02-23T05:05:17;99996.00;;;6.29;63.46
68654;BME280;55636;51.108;13.622;2023-02-23T05:06:20;99987.22;;;6.27;63.52
68654;BME280;55636;51.108;13.622;2023-02-23T05:07:24;99991.59;;;6.28;63.48
68654;BME280;55636;51.108;13.622;2023-02-23T05:08:26;99988.28;;;6.26;63.47
68654;BME280;55636;51.108;13.622;2023-02-23T05:09:30;99983.88;;;6.24;63.52
68654;BME280;55636;51.108;13.622;2023-02-23T05:10:33;99986.59;;;6.24;63.47
68654;BME280;55636;51.108;13.622;2023-02-23T05:11:35;99986.59;;;6.24;63.64
68654;BME280;55636;51.108;13.622;2023-02-23T05:12:37;99987.44;;;6.25;63.73
68654;BME280;55636;51.108;13.622;2023-02-23T05:13:40;99984.94;;;6.23;63.56
68654;BME280;55636;51.108;13.622;2023-02-23T05:14:43;99987.66;;;6.23;63.54
68654;BME280;55636;51.108;13.622;2023-02-23T05:15:47;99989.59;;;6.23;63.52
68654;BME280;55636;51.108;13.622;2023-02-23T05:16:49;99982.44;;;6.22;63.58
68654;BME280;55636;51.108;13.622;2023-02-23T05:17:53;99983.50;;;6.21;63.57
68654;BME280;55636;51.108;13.622;2023-02-23T05:18:58;99990.91;;;6.20;63.63
68654;BME280;55636;51.108;13.622;2023-02-23T05:20:00;99991.72;;;6.21;63.53
68654;BME280;55636;51.108;13.622;2023-02-23T05:21:06;99987.09;;;6.21;63.48
68654;BME280;55636;51.108;13.622;2023-02-23T05:22:08;99998.91;;;6.22;63.50
68654;BME280;55636;51.108;13.622;2023-02-23T05:23:13;99996.97;;;6.22;63.58
68654;BME280;55636;51.108;13.622;2023-02-23T05:24:17;99989.84;;;6.21;63.54
68654;BME280;55636;51.108;13.622;2023-02-23T05:25:19;99989.84;;;6.21;63.52
68654;BME280;55636;51.108;13.622;2023-02-23T05:26:22;99991.47;;;6.22;63.57
68654;BME280;55636;51.108;13.622;2023-02-23T05:27:24;100001.06;;;6.20;63.65
68654;BME280;55636;51.108;13.622;2023-02-23T05:28:26;99998.06;;;6.21;63.65
68654;BME280;55636;51.108;13.622;2023-02-23T05:29:29;99996.63;;;6.19;63.69
68654;BME280;55636;51.108;13.622;2023-02-23T05:30:31;99994.97;;;6.18;63.65
68654;BME280;55636;51.108;13.622;2023-02-23T05:31:34;99990.31;;;6.18;63.62
68654;BME280;55636;51.108;13.622;2023-02-23T05:32:37;99998.53;;;6.18;63.72
68654;BME280;55636;51.108;13.622;2023-02-23T05:33:40;99997.47;;;6.19;63.67
68654;BME280;55636;51.108;13.622;2023-02-23T05:34:46;100001.06;;;6.20;63.73
68654;BME280;55636;51.108;13.622;2023-02-23T05:35:48;99991.72;;;6.21;63.79
68654;BME280;55636;51.108;13.622;2023-02-23T05:36:52;100005.69;;;6.19;63.93
68654;BME280;55636;51.108;13.622;2023-02-23T05:37:55;100002.69;;;6.21;64.01
68654;BME280;55636;51.108;13.622;2023-02-23T05:38:57;100002.69;;;6.21;63.83
68654;BME280;55636;51.108;13.622;2023-02-23T05:39:59;99998.06;;;6.21;63.78
68654;BME280;55636;51.108;13.622;2023-02-23T05:41:10;99999.97;;;6.21;63.87
68654;BME280;55636;51.108;13.622;2023-02-23T05:42:13;99993.66;;;6.20;63.65
68654;BME280;55636;51.108;13.622;2023-02-23T05:43:16;99998.06;;;6.21;63.73
68654;BME280;55636;51.108;13.622;2023-02-23T05:44:18;100002.69;;;6.21;63.57
68654;BME280;55636;51.108;13.622;2023-02-23T05:45:20;100004.38;;;6.22;63.53
68654;BME280;55636;51.108;13.622;2023-02-23T05:46:25;100004.38;;;6.22;63.71
68654;BME280;55636;51.108;13.622;2023-02-23T05:47:31;100013.44;;;6.22;63.72
68654;BME280;55636;51.108;13.622;2023-02-23T05:48:33;100005.19;;;6.22;63.56
68654;BME280;55636;51.108;13.622;2023-02-23T05:49:36;100004.38;;;6.22;63.83
68654;BME280;55636;51.108;13.622;2023-02-23T05:50:39;100004.97;;;6.24;63.65
68654;BME280;55636;51.108;13.622;2023-02-23T05:51:41;100004.38;;;6.22;63.72
68654;BME280;55636;51.108;13.622;2023-02-23T05:52:44;100002.47;;;6.22;63.68
68654;BME280;55636;51.108;13.622;2023-02-23T05:53:46;100003.31;;;6.23;63.69
68654;BME280;55636;51.108;13.622;2023-02-23T05:54:49;100001.88;;;6.20;63.76
68654;BME280;55636;51.108;13.622;2023-02-23T05:55:51;100003.56;;;6.21;63.83
68654;BME280;55636;51.108;13.622;2023-02-23T05:56:53;99999.72;;;6.22;63.81
68654;BME280;55636;51.108;13.622;2023-02-23T05:57:56;100006.06;;;6.23;63.59
68654;BME280;55636;51.108;13.622;2023-02-23T05:59:00;100003.56;;;6.21;63.80
68654;BME280;55636;51.108;13.622;2023-02-23T06:00:06;100008.19;;;6.21;63.83
68654;BME280;55636;51.108;13.622;2023-02-23T06:01:09;100002.69;;;6.21;63.79
68654;BME280;55636;51.108;13.622;2023-02-23T06:02:12;100009.88;;;6.22;63.77
68654;BME280;55636;51.108;13.622;2023-02-23T06:03:15;100009.88;;;6.22;63.84
68654;BME280;55636;51.108;13.622;2023-02-23T06:04:18;100020.84;;;6.22;63.76
68654;BME280;55636;51.108;13.622;2023-02-23T06:05:22;100015.34;;;6.22;63.80
68654;BME280;55636;51.108;13.622;2023-02-23T06:06:25;100013.22;;;6.24;63.82
68654;BME280;55636;51.108;13.622;2023-02-23T06:07:29;100012.38;;;6.23;63.74
68654;BME280;55636;51.108;13.622;2023-02-23T06:08:32;100014.03;;;6.24;63.85
68654;BME280;55636;51.108;13.622;2023-02-23T06:09:34;100014.03;;;6.24;63.84
68654;BME280;55636;51.108;13.622;2023-02-23T06:10:37;100017.03;;;6.23;63.81
68654;BME280;55636;51.108;13.622;2023-02-23T06:11:39;100012.38;;;6.23;63.80
68654;BME280;55636;51.108;13.622;2023-02-23T06:12:43;100013.22;;;6.24;63.79
68654;BME280;55636;51.108;13.622;2023-02-23T06:13:45;100017.84;;;6.23;63.86
68654;BME280;55636;51.108;13.622;2023-02-23T06:14:48;100017.84;;;6.23;63.81
68654;BME280;55636;51.108;13.622;2023-02-23T06:15:51;100022.25;;;6.24;63.82
68654;BME280;55636;51.108;13.622;2023-02-23T06:16:56;100018.09;;;6.22;63.81
68654;BME280;55636;51.108;13.622;2023-02-23T06:17:58;100019.53;;;6.24;63.82
68654;BME280;55636;51.108;13.622;2023-02-23T06:19:01;100023.34;;;6.23;63.89
68654;BME280;55636;51.108;13.622;2023-02-23T06:20:04;100022.25;;;6.24;63.88
68654;BME280;55636;51.108;13.622;2023-02-23T06:21:08;100022.25;;;6.24;63.83
68654;BME280;55636;51.108;13.622;2023-02-23T06:22:10;100021.66;;;6.22;63.79
68654;BME280;55636;51.108;13.622;2023-02-23T06:23:13;100014.84;;;6.25;63.79
68654;BME280;55636;51.108;13.622;2023-02-23T06:24:16;100022.50;;;6.23;63.99
68654;BME280;55636;51.108;13.622;2023-02-23T06:25:20;100029.66;;;6.24;63.85
68654;BME280;55636;51.108;13.622;2023-02-23T06:26:22;100020.84;;;6.22;63.97
68654;BME280;55636;51.108;13.622;2023-02-23T06:27:27;100019.78;;;6.23;63.99
68654;BME280;55636;51.108;13.622;2023-02-23T06:28:29;100015.97;;;6.24;63.97